Santo Domingo de Guzmán, República Dominicana

9:26 PM AST en Abril 20, 2015 (GMT -0400)
Zona Universitaria | | Change Station
CLOSE
Current Station
Estación meteorológica personal
Location: Santo Domingo, NATIONAL DISTRICT
Altura: 52 ft
Estaciones meteorológicas cercanas

Alt 52 ft 18.46 °N, 69.91 °W | Updated 10 seconds ago

Partly Cloudy
Parcialmente nublado
82.8 ° F
Sensación térmica 82 ° F
N
7.2
Viento Variable Viento desde Sur
Gusts 7.4 mph

Hoy
Alta -- | Baja -- ° F
--% Posibilidad de precipitaciones
Ayer
Alta -- | Baja -- ° F
Precip. -- pul
6:19 AM 6:57 PM
Creciente, 7% visible
Presión 29.98 pul
Visibilidad 6.2 Millas
Nubes Baja 1800 ft
Índice de calor 82 ° F
Punto de rocío 54 ° F
Humedad 37%
Precipitaciones pul
Espesor de la nieve No disponible.
UV 0 de una escala de 12
Polen No disponible.
Calidad del aire No disponible.
Flu Activity No disponible.
METAR MDSD 210100Z 13009KT 9999 FEW018 26/23 Q1015 NOSIG

More Conditions Fewer Conditions

Presión 29.98 pul
Visibilidad 6.2 Millas
Nubes Baja 1800 ft
Índice de calor 82 ° F
Punto de rocío 54 ° F
Humedad 37%
Precipitaciones pul
Espesor de la nieve No disponible.
UV 0 de una escala de 12
Polen No disponible.
Calidad del aire No disponible.
Flu Activity No disponible.
METAR MDSD 210100Z 13009KT 9999 FEW018 26/23 Q1015 NOSIG

More Conditions Fewer Conditions

10-Day Weather Forecast

Almanac

Astronomía

Apr. 20, 2015 Salida Puesta
Hora real
Crepúsculo civil
Crepúsculo náutico
Crepúsculo astronómico
Luna
Horas de luz
Horas de luz
Tomorrow will be .
, % of the Moon is Illuminated

Extremos de hoy

Máximos del país Bajas del país

Community

WunderPhotos

Upload Photos

1,815,274 ¡fotos cargadas!

WunderBlogs® & News

Nearby

Calidad del aire

  Calidad del aire Índice AQ Contaminante
Not available.

Grosos de nieve

Estación Profundido Altura

Actividad de terremotos

Ciudad Distance Mag. Tiempo y dato
Magnitud mínima muestra es 2,5.

Temperaturas de aguas costeras

Lugar Temperatura

Stations

Estaciones meteorológicas cercanas

Ubicación de la estación Temp. Vientos helados Punto de rocío Humedad Viento Precip. Alt Actualizado Tipo